createdAt,value
2024-02-17T00:01:15.761Z,7.53
2024-02-17T00:06:18.844Z,8.27
2024-02-17T00:11:23.261Z,8.87
2024-02-17T00:16:26.206Z,8.90
2024-02-17T00:21:29.118Z,14.63
2024-02-17T00:26:33.381Z,8.67
2024-02-17T00:31:36.243Z,9.90
2024-02-17T00:36:39.224Z,9.60
2024-02-17T00:41:43.621Z,8.93
2024-02-17T00:46:46.509Z,7.27
2024-02-17T00:51:49.587Z,6.40
2024-02-17T00:56:53.899Z,6.87
2024-02-17T01:01:58.227Z,9.80
2024-02-17T01:07:01.198Z,10.13
2024-02-17T01:12:05.850Z,6.47
2024-02-17T01:17:08.792Z,5.90
2024-02-17T01:22:11.650Z,7.20
2024-02-17T01:27:15.975Z,5.30
2024-02-17T01:32:18.938Z,6.00
2024-02-17T01:37:21.794Z,6.00
2024-02-17T01:42:26.081Z,4.60
2024-02-17T01:47:29.729Z,4.00
2024-02-17T01:52:36.127Z,4.40
2024-02-17T01:57:43.135Z,3.87
2024-02-17T02:02:47.792Z,5.50
2024-02-17T02:07:50.796Z,5.87
2024-02-17T02:17:58.332Z,6.57
2024-02-17T02:23:01.345Z,7.10
2024-02-17T02:28:06.199Z,7.20
2024-02-17T02:33:09.279Z,7.50
2024-02-17T02:38:12.376Z,6.47
2024-02-17T02:43:16.723Z,8.17
2024-02-17T02:48:19.698Z,6.87
2024-02-17T02:53:22.677Z,10.13
2024-02-17T02:58:26.969Z,9.17
2024-02-17T03:03:29.905Z,10.40
2024-02-17T03:08:32.867Z,11.80
2024-02-17T03:13:38.159Z,13.17
2024-02-17T03:18:41.199Z,14.50
2024-02-17T03:23:44.501Z,13.23
2024-02-17T03:28:48.786Z,12.63
2024-02-17T03:33:52.866Z,12.50
2024-02-17T03:38:55.953Z,15.60
2024-02-17T03:44:00.205Z,12.80
2024-02-17T03:49:03.753Z,13.70
2024-02-17T03:54:06.828Z,15.07
2024-02-17T03:59:11.090Z,14.83
2024-02-17T04:04:14.158Z,14.87
2024-02-17T04:09:17.228Z,15.57
2024-02-17T04:14:21.577Z,15.50
2024-02-17T04:19:24.604Z,17.33
2024-02-17T04:24:27.636Z,16.40
2024-02-17T04:29:31.959Z,17.03
2024-02-17T04:34:35.078Z,16.70
2024-02-17T04:39:38.090Z,17.57
2024-02-17T04:44:42.384Z,19.07
2024-02-17T04:49:45.326Z,19.30
2024-02-17T04:54:48.305Z,18.13
2024-02-17T04:59:52.563Z,18.50
2024-02-17T05:04:55.450Z,16.73
2024-02-17T05:09:58.487Z,17.13
2024-02-17T05:15:04.997Z,18.73
2024-02-17T05:20:09.097Z,16.23
2024-02-17T05:25:12.012Z,18.93
2024-02-17T05:30:18.604Z,15.60
2024-02-17T05:35:21.627Z,15.90
2024-02-17T05:40:24.595Z,16.50
2024-02-17T05:45:29.698Z,15.03
2024-02-17T05:50:32.937Z,15.03
2024-02-17T05:55:35.822Z,14.80
2024-02-17T06:00:40.444Z,15.10
2024-02-17T06:05:43.376Z,17.83
2024-02-17T06:10:46.335Z,16.43
2024-02-17T06:15:51.814Z,17.80
2024-02-17T06:21:15.025Z,15.67
2024-02-17T06:26:25.536Z,16.37
2024-02-17T06:31:29.883Z,15.23
2024-02-17T06:36:33.378Z,16.50
2024-02-17T06:41:36.349Z,17.20
2024-02-17T06:46:45.417Z,16.03
2024-02-17T06:51:48.499Z,13.97
2024-02-17T06:56:51.443Z,16.57
2024-02-17T07:01:55.707Z,16.07
2024-02-17T07:06:58.702Z,16.77
2024-02-17T07:12:01.691Z,15.17
2024-02-17T07:17:06.410Z,16.37
2024-02-17T07:22:10.068Z,15.70
2024-02-17T07:27:13.060Z,18.80
2024-02-17T07:32:18.700Z,18.47
2024-02-17T07:37:21.574Z,16.83
2024-02-17T07:42:24.958Z,18.33
2024-02-17T07:47:29.299Z,15.20
2024-02-17T07:52:32.632Z,17.50
2024-02-17T07:57:36.558Z,16.00
2024-02-17T08:02:41.287Z,17.20
2024-02-17T08:07:44.779Z,13.87
2024-02-17T08:12:47.822Z,16.23
2024-02-17T08:17:52.195Z,14.57
2024-02-17T08:22:55.077Z,13.20
2024-02-17T08:27:58.178Z,16.33
2024-02-17T08:33:02.547Z,9.70
2024-02-17T08:38:05.810Z,11.20
2024-02-17T08:43:08.757Z,11.10
2024-02-17T08:48:13.955Z,12.27
2024-02-17T08:53:16.946Z,11.57
2024-02-17T08:58:19.902Z,10.87
2024-02-17T09:03:24.199Z,11.37
2024-02-17T09:08:27.409Z,10.10
2024-02-17T09:13:30.704Z,14.93
2024-02-17T09:18:35.403Z,12.27
2024-02-17T09:23:38.463Z,11.07
2024-02-17T09:28:41.364Z,10.10
2024-02-17T09:33:45.898Z,9.10
2024-02-17T09:38:48.990Z,6.60
2024-02-17T09:43:52.276Z,7.57
2024-02-17T09:48:59.661Z,6.83
2024-02-17T09:54:04.800Z,8.90
2024-02-17T09:59:07.660Z,8.93
2024-02-17T10:04:12.004Z,6.50
2024-02-17T10:09:20.126Z,7.53
2024-02-17T10:14:24.697Z,10.27
2024-02-17T10:19:31.087Z,7.10
2024-02-17T10:24:34.144Z,6.67
2024-02-17T10:29:37.086Z,4.67
2024-02-17T10:34:42.256Z,5.97
2024-02-17T10:39:47.066Z,6.43
2024-02-17T10:44:50.120Z,5.53
2024-02-17T10:50:04.604Z,5.83
2024-02-17T10:55:12.237Z,6.17
2024-02-17T11:00:17.357Z,6.27
2024-02-17T11:05:23.397Z,15.53
2024-02-17T11:10:30.444Z,6.47
2024-02-17T11:15:35.953Z,8.93
2024-02-17T11:20:41.658Z,4.30
2024-02-17T11:25:44.782Z,6.40
2024-02-17T11:30:51.741Z,7.43
2024-02-17T11:35:58.244Z,7.93
2024-02-17T11:41:02.679Z,6.27
2024-02-17T11:46:06.340Z,7.50
2024-02-17T11:51:26.813Z,5.60
2024-02-17T11:56:37.173Z,7.77
2024-02-17T12:01:40.135Z,6.60
2024-02-17T12:06:44.513Z,6.90
2024-02-17T12:11:47.642Z,7.07
2024-02-17T12:16:50.553Z,6.70
2024-02-17T12:21:55.189Z,7.70
2024-02-17T12:26:58.463Z,6.53
2024-02-17T12:32:02.240Z,7.17
2024-02-17T12:37:08.356Z,8.40
2024-02-17T12:42:11.571Z,10.33
2024-02-17T12:47:17.233Z,8.73
2024-02-17T12:52:21.968Z,6.43
2024-02-17T12:57:24.949Z,5.53
2024-02-17T13:02:27.922Z,7.33
2024-02-17T13:07:33.291Z,8.60
2024-02-17T13:12:36.240Z,7.77
2024-02-17T13:17:39.430Z,7.13
2024-02-17T13:22:44.204Z,8.53
2024-02-17T13:27:47.198Z,6.90
2024-02-17T13:32:50.240Z,10.53
2024-02-17T13:37:54.550Z,7.87
2024-02-17T13:42:57.550Z,8.07
2024-02-17T13:48:00.553Z,8.27
2024-02-17T13:53:05.533Z,8.80
2024-02-17T13:58:08.605Z,8.20
2024-02-17T14:03:11.858Z,11.20
2024-02-17T14:08:16.590Z,9.77
2024-02-17T14:13:19.838Z,9.07
2024-02-17T14:18:24.328Z,19.50
2024-02-17T14:23:28.905Z,9.17
2024-02-17T14:28:31.760Z,11.60
2024-02-17T14:33:34.762Z,8.00
2024-02-17T14:38:39.069Z,9.33
2024-02-17T14:43:41.975Z,13.07
2024-02-17T14:48:46.105Z,9.07
2024-02-17T14:53:50.481Z,10.80
2024-02-17T14:58:53.746Z,10.30
2024-02-17T15:03:56.798Z,10.57
2024-02-17T15:09:02.033Z,6.43
2024-02-17T15:14:05.542Z,8.03
2024-02-17T15:19:08.505Z,9.87
2024-02-17T15:24:12.902Z,7.30
2024-02-17T15:29:15.833Z,7.27
2024-02-17T15:34:20.377Z,7.83
2024-02-17T15:39:24.769Z,9.90
2024-02-17T15:44:29.076Z,5.50
2024-02-17T15:49:32.097Z,5.70
2024-02-17T15:54:36.422Z,6.73
2024-02-17T15:59:39.834Z,5.27
2024-02-17T16:04:42.968Z,4.97
2024-02-17T16:09:48.974Z,6.93
2024-02-17T16:14:51.929Z,9.10
2024-02-17T16:19:55.239Z,6.47
2024-02-17T16:24:59.642Z,8.80
2024-02-17T16:30:02.649Z,5.67
2024-02-17T16:35:06.262Z,12.00
2024-02-17T16:40:12.553Z,8.17
2024-02-17T16:45:15.835Z,8.30
2024-02-17T16:50:18.819Z,5.77
2024-02-17T16:55:24.287Z,7.33
2024-02-17T17:00:27.355Z,5.80
2024-02-17T17:05:30.412Z,6.20
2024-02-17T17:10:34.667Z,6.63
2024-02-17T17:15:37.692Z,4.93
2024-02-17T17:20:40.625Z,7.93
2024-02-17T17:25:46.140Z,5.37
2024-02-17T17:30:49.288Z,9.37
2024-02-17T17:35:52.195Z,11.73
2024-02-17T17:40:56.510Z,6.37
2024-02-17T17:45:59.399Z,5.87
2024-02-17T17:51:03.462Z,6.43
2024-02-17T17:56:08.017Z,6.27
2024-02-17T18:01:11.357Z,7.93
2024-02-17T18:06:17.103Z,7.50
2024-02-17T18:11:21.640Z,6.10
2024-02-17T18:16:24.594Z,6.07
2024-02-17T18:21:27.556Z,6.60
2024-02-17T18:26:31.834Z,8.77
2024-02-17T18:31:37.446Z,9.90
2024-02-17T18:36:40.724Z,10.00
2024-02-17T18:41:46.874Z,9.43
2024-02-17T18:46:49.993Z,8.33
2024-02-17T18:51:53.830Z,8.47
2024-02-17T18:56:58.235Z,6.60
2024-02-17T19:02:01.209Z,11.37
2024-02-17T19:07:04.476Z,12.17
2024-02-17T19:12:09.136Z,15.93
2024-02-17T19:17:12.019Z,27.30
2024-02-17T19:22:15.251Z,10.63
2024-02-17T19:27:19.678Z,11.23
2024-02-17T19:32:22.701Z,10.70
2024-02-17T19:37:25.606Z,11.37
2024-02-17T19:42:30.086Z,13.80
2024-02-17T19:47:33.092Z,22.43
2024-02-17T19:52:35.994Z,9.33
2024-02-17T19:57:42.734Z,10.60
2024-02-17T20:02:45.826Z,11.50
2024-02-17T20:07:49.325Z,7.57
2024-02-17T20:12:53.934Z,11.30
2024-02-17T20:17:56.940Z,9.60
2024-02-17T20:22:59.827Z,9.00
2024-02-17T20:28:04.427Z,11.63
2024-02-17T20:33:09.645Z,8.33
2024-02-17T20:38:13.160Z,8.83
2024-02-17T20:43:17.482Z,11.00
2024-02-17T20:48:20.542Z,8.67
2024-02-17T20:53:23.710Z,6.43
2024-02-17T20:58:28.015Z,6.00
2024-02-17T21:03:31.013Z,10.10
2024-02-17T21:08:35.118Z,13.03
2024-02-17T21:13:39.434Z,8.83
2024-02-17T21:18:42.552Z,13.63
2024-02-17T21:23:45.492Z,12.33
2024-02-17T21:28:49.795Z,11.10
2024-02-17T21:33:53.509Z,7.97
2024-02-17T21:38:56.618Z,6.17
2024-02-17T21:44:00.943Z,10.43
2024-02-17T21:49:05.253Z,8.40
2024-02-17T21:54:08.432Z,9.00
2024-02-17T21:59:12.753Z,7.23
2024-02-17T22:04:15.761Z,6.40
2024-02-17T22:09:18.810Z,4.90
2024-02-17T22:14:23.115Z,8.53
2024-02-17T22:19:26.533Z,8.03
2024-02-17T22:24:29.660Z,7.87
2024-02-17T22:29:37.724Z,6.60
2024-02-17T22:34:40.860Z,5.43
2024-02-17T22:39:43.918Z,5.73
2024-02-17T22:44:49.466Z,4.90
2024-02-17T22:49:53.702Z,5.83
2024-02-17T22:54:56.868Z,5.93
2024-02-17T23:00:01.786Z,7.87
2024-02-17T23:05:05.365Z,6.57
2024-02-17T23:10:10.162Z,6.77
2024-02-17T23:15:14.557Z,12.80
2024-02-17T23:20:17.626Z,6.80
2024-02-17T23:25:20.710Z,9.57
2024-02-17T23:30:25.059Z,10.00
2024-02-17T23:35:28.013Z,10.27
2024-02-17T23:40:31.191Z,13.07
2024-02-17T23:45:36.184Z,9.87
2024-02-17T23:50:39.976Z,10.43
2024-02-17T23:55:43.369Z,10.27
